sensor_id;sensor_type;location;lat;lon;timestamp;P1;durP1;ratioP1;P2;durP2;ratioP2
2602;SDS011;1311;47.966;7.958;2022-09-09T00:01:36;2.23;;;1.73;;
2602;SDS011;1311;47.966;7.958;2022-09-09T00:04:10;1.63;;;1.53;;
2602;SDS011;1311;47.966;7.958;2022-09-09T00:06:45;2.43;;;1.87;;
2602;SDS011;1311;47.966;7.958;2022-09-09T00:09:15;2.53;;;1.80;;
2602;SDS011;1311;47.966;7.958;2022-09-09T00:11:46;3.13;;;1.50;;
2602;SDS011;1311;47.966;7.958;2022-09-09T00:14:18;1.73;;;1.20;;
2602;SDS011;1311;47.966;7.958;2022-09-09T00:16:50;1.83;;;1.20;;
2602;SDS011;1311;47.966;7.958;2022-09-09T00:19:22;2.33;;;1.30;;
2602;SDS011;1311;47.966;7.958;2022-09-09T00:21:59;1.77;;;1.20;;
2602;SDS011;1311;47.966;7.958;2022-09-09T00:24:37;1.23;;;1.00;;
2602;SDS011;1311;47.966;7.958;2022-09-09T00:27:13;1.00;;;0.90;;
2602;SDS011;1311;47.966;7.958;2022-09-09T00:29:51;1.97;;;1.67;;
2602;SDS011;1311;47.966;7.958;2022-09-09T00:32:21;6.17;;;1.60;;
2602;SDS011;1311;47.966;7.958;2022-09-09T00:34:51;2.83;;;1.33;;
2602;SDS011;1311;47.966;7.958;2022-09-09T00:37:22;1.97;;;1.23;;
2602;SDS011;1311;47.966;7.958;2022-09-09T00:39:52;3.87;;;1.43;;
2602;SDS011;1311;47.966;7.958;2022-09-09T00:42:24;1.50;;;1.40;;
2602;SDS011;1311;47.966;7.958;2022-09-09T00:44:56;2.07;;;1.20;;
2602;SDS011;1311;47.966;7.958;2022-09-09T00:47:36;1.87;;;1.30;;
2602;SDS011;1311;47.966;7.958;2022-09-09T00:55:59;3.23;;;1.10;;
2602;SDS011;1311;47.966;7.958;2022-09-09T00:58:35;3.40;;;1.10;;
2602;SDS011;1311;47.966;7.958;2022-09-09T01:01:03;1.57;;;1.13;;
2602;SDS011;1311;47.966;7.958;2022-09-09T01:03:34;2.10;;;1.03;;
2602;SDS011;1311;47.966;7.958;2022-09-09T01:06:02;2.83;;;1.30;;
2602;SDS011;1311;47.966;7.958;2022-09-09T01:08:43;3.10;;;1.33;;
2602;SDS011;1311;47.966;7.958;2022-09-09T01:11:32;1.97;;;1.13;;
2602;SDS011;1311;47.966;7.958;2022-09-09T01:14:10;2.43;;;1.10;;
2602;SDS011;1311;47.966;7.958;2022-09-09T01:16:43;2.07;;;1.00;;
2602;SDS011;1311;47.966;7.958;2022-09-09T01:19:13;1.27;;;1.10;;
2602;SDS011;1311;47.966;7.958;2022-09-09T01:21:47;1.97;;;1.27;;
2602;SDS011;1311;47.966;7.958;2022-09-09T01:24:22;4.07;;;1.30;;
2602;SDS011;1311;47.966;7.958;2022-09-09T01:26:55;3.03;;;1.23;;
2602;SDS011;1311;47.966;7.958;2022-09-09T01:29:25;1.30;;;1.10;;
2602;SDS011;1311;47.966;7.958;2022-09-09T01:31:53;3.33;;;1.23;;
2602;SDS011;1311;47.966;7.958;2022-09-09T01:34:21;3.37;;;1.70;;
2602;SDS011;1311;47.966;7.958;2022-09-09T01:36:49;1.87;;;1.30;;
2602;SDS011;1311;47.966;7.958;2022-09-09T01:39:22;3.00;;;1.73;;
2602;SDS011;1311;47.966;7.958;2022-09-09T01:41:49;3.53;;;1.23;;
2602;SDS011;1311;47.966;7.958;2022-09-09T01:44:17;2.70;;;1.20;;
2602;SDS011;1311;47.966;7.958;2022-09-09T01:46:45;4.47;;;1.73;;
2602;SDS011;1311;47.966;7.958;2022-09-09T01:49:12;3.57;;;1.70;;
2602;SDS011;1311;47.966;7.958;2022-09-09T01:51:39;1.97;;;1.10;;
2602;SDS011;1311;47.966;7.958;2022-09-09T01:54:07;1.93;;;1.37;;
2602;SDS011;1311;47.966;7.958;2022-09-09T01:56:36;5.77;;;1.77;;
2602;SDS011;1311;47.966;7.958;2022-09-09T01:59:13;2.30;;;1.47;;
2602;SDS011;1311;47.966;7.958;2022-09-09T02:01:56;3.07;;;1.17;;
2602;SDS011;1311;47.966;7.958;2022-09-09T02:04:36;1.50;;;1.20;;
2602;SDS011;1311;47.966;7.958;2022-09-09T02:07:06;5.83;;;1.50;;
2602;SDS011;1311;47.966;7.958;2022-09-09T02:09:43;3.07;;;1.77;;
2602;SDS011;1311;47.966;7.958;2022-09-09T02:12:16;5.57;;;1.87;;
2602;SDS011;1311;47.966;7.958;2022-09-09T02:14:50;2.80;;;1.40;;
2602;SDS011;1311;47.966;7.958;2022-09-09T02:17:22;2.57;;;1.27;;
2602;SDS011;1311;47.966;7.958;2022-09-09T02:19:56;2.60;;;1.47;;
2602;SDS011;1311;47.966;7.958;2022-09-09T02:22:28;2.30;;;1.33;;
2602;SDS011;1311;47.966;7.958;2022-09-09T02:24:59;1.80;;;1.50;;
2602;SDS011;1311;47.966;7.958;2022-09-09T02:27:30;2.30;;;1.50;;
2602;SDS011;1311;47.966;7.958;2022-09-09T02:29:58;2.67;;;1.43;;
2602;SDS011;1311;47.966;7.958;2022-09-09T02:32:28;1.80;;;1.50;;
2602;SDS011;1311;47.966;7.958;2022-09-09T02:34:57;3.60;;;1.10;;
2602;SDS011;1311;47.966;7.958;2022-09-09T02:37:28;2.37;;;1.30;;
2602;SDS011;1311;47.966;7.958;2022-09-09T02:40:00;1.83;;;1.23;;
2602;SDS011;1311;47.966;7.958;2022-09-09T02:42:27;1.70;;;1.00;;
2602;SDS011;1311;47.966;7.958;2022-09-09T02:44:54;6.33;;;1.53;;
2602;SDS011;1311;47.966;7.958;2022-09-09T02:47:26;1.83;;;1.50;;
2602;SDS011;1311;47.966;7.958;2022-09-09T02:50:00;3.30;;;1.80;;
2602;SDS011;1311;47.966;7.958;2022-09-09T02:52:36;2.40;;;1.70;;
2602;SDS011;1311;47.966;7.958;2022-09-09T02:55:13;5.03;;;1.67;;
2602;SDS011;1311;47.966;7.958;2022-09-09T02:57:44;1.70;;;1.30;;
2602;SDS011;1311;47.966;7.958;2022-09-09T03:00:13;3.13;;;1.30;;
2602;SDS011;1311;47.966;7.958;2022-09-09T03:02:42;2.43;;;1.20;;
2602;SDS011;1311;47.966;7.958;2022-09-09T03:05:10;3.00;;;1.30;;
2602;SDS011;1311;47.966;7.958;2022-09-09T03:07:38;4.40;;;1.43;;
2602;SDS011;1311;47.966;7.958;2022-09-09T03:10:05;4.70;;;1.50;;
2602;SDS011;1311;47.966;7.958;2022-09-09T03:12:33;1.30;;;1.20;;
2602;SDS011;1311;47.966;7.958;2022-09-09T03:15:00;1.50;;;1.40;;
2602;SDS011;1311;47.966;7.958;2022-09-09T03:17:26;2.17;;;1.10;;
2602;SDS011;1311;47.966;7.958;2022-09-09T03:19:54;2.70;;;1.43;;
2602;SDS011;1311;47.966;7.958;2022-09-09T03:22:23;4.87;;;1.40;;
2602;SDS011;1311;47.966;7.958;2022-09-09T03:24:51;2.27;;;1.17;;
2602;SDS011;1311;47.966;7.958;2022-09-09T03:27:18;1.83;;;1.50;;
2602;SDS011;1311;47.966;7.958;2022-09-09T03:29:49;1.43;;;1.23;;
2602;SDS011;1311;47.966;7.958;2022-09-09T03:32:16;2.97;;;1.30;;
2602;SDS011;1311;47.966;7.958;2022-09-09T03:34:43;4.70;;;1.90;;
2602;SDS011;1311;47.966;7.958;2022-09-09T03:37:13;2.27;;;1.37;;
2602;SDS011;1311;47.966;7.958;2022-09-09T03:39:40;3.50;;;1.33;;
2602;SDS011;1311;47.966;7.958;2022-09-09T03:42:09;2.43;;;1.33;;
2602;SDS011;1311;47.966;7.958;2022-09-09T03:44:39;3.10;;;1.30;;
2602;SDS011;1311;47.966;7.958;2022-09-09T03:47:06;5.20;;;1.50;;
2602;SDS011;1311;47.966;7.958;2022-09-09T03:49:33;2.10;;;1.10;;
2602;SDS011;1311;47.966;7.958;2022-09-09T03:52:00;4.17;;;1.53;;
2602;SDS011;1311;47.966;7.958;2022-09-09T03:54:29;1.53;;;1.03;;
2602;SDS011;1311;47.966;7.958;2022-09-09T03:56:56;1.90;;;1.40;;
2602;SDS011;1311;47.966;7.958;2022-09-09T03:59:23;1.30;;;1.20;;
2602;SDS011;1311;47.966;7.958;2022-09-09T04:01:50;2.57;;;1.37;;
2602;SDS011;1311;47.966;7.958;2022-09-09T04:04:17;1.70;;;1.17;;
2602;SDS011;1311;47.966;7.958;2022-09-09T04:06:44;2.17;;;1.13;;
2602;SDS011;1311;47.966;7.958;2022-09-09T04:09:13;2.40;;;1.20;;
2602;SDS011;1311;47.966;7.958;2022-09-09T04:11:41;3.33;;;1.60;;
2602;SDS011;1311;47.966;7.958;2022-09-09T04:14:07;2.87;;;1.17;;
2602;SDS011;1311;47.966;7.958;2022-09-09T04:16:34;1.80;;;1.30;;
2602;SDS011;1311;47.966;7.958;2022-09-09T04:19:02;2.20;;;1.10;;
2602;SDS011;1311;47.966;7.958;2022-09-09T04:21:29;1.70;;;1.17;;
2602;SDS011;1311;47.966;7.958;2022-09-09T04:23:56;2.73;;;1.20;;
2602;SDS011;1311;47.966;7.958;2022-09-09T04:26:23;2.30;;;1.30;;
2602;SDS011;1311;47.966;7.958;2022-09-09T04:28:51;1.50;;;1.40;;
2602;SDS011;1311;47.966;7.958;2022-09-09T04:31:18;3.53;;;1.20;;
2602;SDS011;1311;47.966;7.958;2022-09-09T04:33:48;4.77;;;1.07;;
2602;SDS011;1311;47.966;7.958;2022-09-09T04:36:15;3.40;;;1.20;;
2602;SDS011;1311;47.966;7.958;2022-09-09T04:38:43;1.97;;;1.10;;
2602;SDS011;1311;47.966;7.958;2022-09-09T04:41:10;2.63;;;0.93;;
2602;SDS011;1311;47.966;7.958;2022-09-09T04:43:38;2.20;;;1.43;;
2602;SDS011;1311;47.966;7.958;2022-09-09T04:46:06;3.70;;;1.20;;
2602;SDS011;1311;47.966;7.958;2022-09-09T04:48:33;2.03;;;1.10;;
2602;SDS011;1311;47.966;7.958;2022-09-09T04:51:00;4.43;;;1.07;;
2602;SDS011;1311;47.966;7.958;2022-09-09T04:53:29;2.40;;;1.00;;
2602;SDS011;1311;47.966;7.958;2022-09-09T04:56:00;2.23;;;0.93;;
2602;SDS011;1311;47.966;7.958;2022-09-09T04:58:28;2.60;;;1.10;;
2602;SDS011;1311;47.966;7.958;2022-09-09T05:01:02;1.20;;;0.80;;
2602;SDS011;1311;47.966;7.958;2022-09-09T05:03:31;4.57;;;1.30;;
2602;SDS011;1311;47.966;7.958;2022-09-09T05:06:01;2.50;;;0.70;;
2602;SDS011;1311;47.966;7.958;2022-09-09T05:08:30;2.10;;;0.83;;
2602;SDS011;1311;47.966;7.958;2022-09-09T05:10:57;1.03;;;0.80;;
2602;SDS011;1311;47.966;7.958;2022-09-09T05:13:24;1.50;;;1.10;;
2602;SDS011;1311;47.966;7.958;2022-09-09T05:15:51;2.20;;;1.10;;
2602;SDS011;1311;47.966;7.958;2022-09-09T05:18:18;2.33;;;1.20;;
2602;SDS011;1311;47.966;7.958;2022-09-09T05:20:48;1.80;;;1.10;;
2602;SDS011;1311;47.966;7.958;2022-09-09T05:23:16;1.93;;;1.00;;
2602;SDS011;1311;47.966;7.958;2022-09-09T05:25:42;1.53;;;1.00;;
2602;SDS011;1311;47.966;7.958;2022-09-09T05:28:11;3.90;;;1.27;;
2602;SDS011;1311;47.966;7.958;2022-09-09T05:30:38;3.13;;;1.23;;
2602;SDS011;1311;47.966;7.958;2022-09-09T05:33:05;1.70;;;1.40;;
2602;SDS011;1311;47.966;7.958;2022-09-09T05:35:34;2.87;;;1.80;;
2602;SDS011;1311;47.966;7.958;2022-09-09T05:38:04;1.70;;;1.23;;
2602;SDS011;1311;47.966;7.958;2022-09-09T05:40:31;2.20;;;1.00;;
2602;SDS011;1311;47.966;7.958;2022-09-09T05:42:59;1.40;;;1.00;;
2602;SDS011;1311;47.966;7.958;2022-09-09T05:45:28;1.63;;;1.27;;
2602;SDS011;1311;47.966;7.958;2022-09-09T05:47:55;2.90;;;1.50;;
2602;SDS011;1311;47.966;7.958;2022-09-09T05:50:22;1.60;;;1.20;;
2602;SDS011;1311;47.966;7.958;2022-09-09T05:52:49;2.40;;;1.17;;
2602;SDS011;1311;47.966;7.958;2022-09-09T05:55:17;2.33;;;1.10;;
2602;SDS011;1311;47.966;7.958;2022-09-09T05:57:47;1.97;;;0.80;;
2602;SDS011;1311;47.966;7.958;2022-09-09T06:00:16;4.33;;;0.90;;
2602;SDS011;1311;47.966;7.958;2022-09-09T06:02:49;2.77;;;1.10;;
2602;SDS011;1311;47.966;7.958;2022-09-09T06:05:17;1.67;;;1.10;;
2602;SDS011;1311;47.966;7.958;2022-09-09T06:07:44;7.93;;;1.60;;
2602;SDS011;1311;47.966;7.958;2022-09-09T06:10:11;1.73;;;1.07;;
2602;SDS011;1311;47.966;7.958;2022-09-09T06:12:40;1.70;;;0.97;;
2602;SDS011;1311;47.966;7.958;2022-09-09T06:15:07;5.47;;;1.20;;
2602;SDS011;1311;47.966;7.958;2022-09-09T06:17:35;1.40;;;1.00;;
2602;SDS011;1311;47.966;7.958;2022-09-09T06:20:04;1.43;;;0.93;;
2602;SDS011;1311;47.966;7.958;2022-09-09T06:22:31;1.90;;;1.13;;
2602;SDS011;1311;47.966;7.958;2022-09-09T06:24:58;1.30;;;1.00;;
2602;SDS011;1311;47.966;7.958;2022-09-09T06:27:26;1.50;;;0.93;;
2602;SDS011;1311;47.966;7.958;2022-09-09T06:29:55;4.00;;;1.13;;
2602;SDS011;1311;47.966;7.958;2022-09-09T06:32:21;2.00;;;1.10;;
2602;SDS011;1311;47.966;7.958;2022-09-09T06:34:48;3.93;;;1.20;;
2602;SDS011;1311;47.966;7.958;2022-09-09T06:37:15;1.67;;;1.03;;
2602;SDS011;1311;47.966;7.958;2022-09-09T06:39:42;3.63;;;1.00;;
2602;SDS011;1311;47.966;7.958;2022-09-09T06:42:08;3.13;;;1.00;;
2602;SDS011;1311;47.966;7.958;2022-09-09T06:44:35;1.97;;;1.10;;
2602;SDS011;1311;47.966;7.958;2022-09-09T06:47:04;2.40;;;0.90;;
2602;SDS011;1311;47.966;7.958;2022-09-09T06:49:31;2.83;;;1.30;;
2602;SDS011;1311;47.966;7.958;2022-09-09T06:52:00;1.60;;;1.00;;
2602;SDS011;1311;47.966;7.958;2022-09-09T06:54:27;3.27;;;1.23;;
2602;SDS011;1311;47.966;7.958;2022-09-09T06:56:53;3.60;;;1.17;;
2602;SDS011;1311;47.966;7.958;2022-09-09T06:59:20;2.17;;;0.87;;
2602;SDS011;1311;47.966;7.958;2022-09-09T07:01:47;2.13;;;0.90;;
2602;SDS011;1311;47.966;7.958;2022-09-09T07:04:17;4.30;;;0.80;;
2602;SDS011;1311;47.966;7.958;2022-09-09T07:06:45;2.80;;;1.10;;
2602;SDS011;1311;47.966;7.958;2022-09-09T07:09:13;5.80;;;1.00;;
2602;SDS011;1311;47.966;7.958;2022-09-09T07:11:41;2.37;;;1.17;;
2602;SDS011;1311;47.966;7.958;2022-09-09T07:14:09;3.30;;;0.73;;
2602;SDS011;1311;47.966;7.958;2022-09-09T07:16:37;4.20;;;1.10;;
2602;SDS011;1311;47.966;7.958;2022-09-09T07:19:05;1.70;;;0.87;;
2602;SDS011;1311;47.966;7.958;2022-09-09T07:21:33;3.20;;;0.90;;
2602;SDS011;1311;47.966;7.958;2022-09-09T07:24:01;3.40;;;1.07;;
2602;SDS011;1311;47.966;7.958;2022-09-09T07:26:32;1.70;;;0.70;;
2602;SDS011;1311;47.966;7.958;2022-09-09T07:29:00;3.63;;;0.90;;
2602;SDS011;1311;47.966;7.958;2022-09-09T07:31:29;1.77;;;0.90;;
2602;SDS011;1311;47.966;7.958;2022-09-09T07:33:57;3.97;;;1.00;;
2602;SDS011;1311;47.966;7.958;2022-09-09T07:36:26;2.40;;;1.10;;
2602;SDS011;1311;47.966;7.958;2022-09-09T07:38:56;1.80;;;0.80;;
2602;SDS011;1311;47.966;7.958;2022-09-09T07:41:25;1.50;;;0.70;;
2602;SDS011;1311;47.966;7.958;2022-09-09T07:43:53;1.93;;;1.37;;
2602;SDS011;1311;47.966;7.958;2022-09-09T07:46:21;3.33;;;1.20;;
2602;SDS011;1311;47.966;7.958;2022-09-09T07:48:49;3.43;;;0.93;;
2602;SDS011;1311;47.966;7.958;2022-09-09T07:51:18;6.47;;;1.30;;
2602;SDS011;1311;47.966;7.958;2022-09-09T07:53:47;0.80;;;0.70;;
2602;SDS011;1311;47.966;7.958;2022-09-09T07:56:18;7.13;;;1.10;;
2602;SDS011;1311;47.966;7.958;2022-09-09T07:58:48;2.80;;;0.80;;
2602;SDS011;1311;47.966;7.958;2022-09-09T08:01:17;2.17;;;0.90;;
2602;SDS011;1311;47.966;7.958;2022-09-09T08:03:46;4.13;;;1.10;;
2602;SDS011;1311;47.966;7.958;2022-09-09T08:06:18;3.33;;;1.00;;
2602;SDS011;1311;47.966;7.958;2022-09-09T08:08:49;1.37;;;0.73;;
2602;SDS011;1311;47.966;7.958;2022-09-09T08:11:17;1.10;;;0.67;;
2602;SDS011;1311;47.966;7.958;2022-09-09T08:13:45;6.70;;;1.20;;
2602;SDS011;1311;47.966;7.958;2022-09-09T08:16:13;3.00;;;1.00;;
2602;SDS011;1311;47.966;7.958;2022-09-09T08:18:41;1.50;;;0.93;;
2602;SDS011;1311;47.966;7.958;2022-09-09T08:21:08;2.20;;;0.90;;
2602;SDS011;1311;47.966;7.958;2022-09-09T08:23:37;2.30;;;0.97;;
2602;SDS011;1311;47.966;7.958;2022-09-09T08:26:06;1.60;;;0.83;;
2602;SDS011;1311;47.966;7.958;2022-09-09T08:28:37;3.30;;;1.20;;
2602;SDS011;1311;47.966;7.958;2022-09-09T08:31:06;2.00;;;0.90;;
2602;SDS011;1311;47.966;7.958;2022-09-09T08:33:33;2.30;;;0.93;;
2602;SDS011;1311;47.966;7.958;2022-09-09T08:36:01;1.33;;;0.70;;
2602;SDS011;1311;47.966;7.958;2022-09-09T08:38:28;2.40;;;0.90;;
2602;SDS011;1311;47.966;7.958;2022-09-09T08:40:57;1.70;;;0.77;;
2602;SDS011;1311;47.966;7.958;2022-09-09T08:43:29;2.77;;;0.90;;
2602;SDS011;1311;47.966;7.958;2022-09-09T08:46:00;2.47;;;1.00;;
2602;SDS011;1311;47.966;7.958;2022-09-09T08:48:39;1.67;;;0.70;;
2602;SDS011;1311;47.966;7.958;2022-09-09T08:51:14;1.53;;;0.93;;
2602;SDS011;1311;47.966;7.958;2022-09-09T08:53:41;2.57;;;0.80;;
2602;SDS011;1311;47.966;7.958;2022-09-09T08:56:12;2.07;;;0.83;;
2602;SDS011;1311;47.966;7.958;2022-09-09T08:58:43;2.60;;;0.93;;
2602;SDS011;1311;47.966;7.958;2022-09-09T09:01:22;1.47;;;0.70;;
2602;SDS011;1311;47.966;7.958;2022-09-09T09:04:03;2.63;;;0.90;;
2602;SDS011;1311;47.966;7.958;2022-09-09T09:06:40;2.20;;;0.80;;
2602;SDS011;1311;47.966;7.958;2022-09-09T09:09:18;0.73;;;0.47;;
2602;SDS011;1311;47.966;7.958;2022-09-09T09:11:51;1.27;;;0.70;;
2602;SDS011;1311;47.966;7.958;2022-09-09T09:14:21;4.73;;;0.67;;
2602;SDS011;1311;47.966;7.958;2022-09-09T09:16:52;2.90;;;0.93;;
2602;SDS011;1311;47.966;7.958;2022-09-09T09:19:22;1.00;;;0.70;;
2602;SDS011;1311;47.966;7.958;2022-09-09T09:21:52;2.33;;;0.70;;
2602;SDS011;1311;47.966;7.958;2022-09-09T09:24:26;1.00;;;0.63;;
2602;SDS011;1311;47.966;7.958;2022-09-09T09:26:58;3.87;;;0.90;;
2602;SDS011;1311;47.966;7.958;2022-09-09T09:29:33;1.20;;;0.80;;
2602;SDS011;1311;47.966;7.958;2022-09-09T09:32:03;1.77;;;0.70;;
2602;SDS011;1311;47.966;7.958;2022-09-09T09:34:30;4.17;;;1.00;;
2602;SDS011;1311;47.966;7.958;2022-09-09T09:36:57;1.80;;;0.77;;
2602;SDS011;1311;47.966;7.958;2022-09-09T09:39:27;3.37;;;0.53;;
2602;SDS011;1311;47.966;7.958;2022-09-09T09:41:56;1.20;;;0.80;;
2602;SDS011;1311;47.966;7.958;2022-09-09T09:44:25;1.60;;;0.80;;
2602;SDS011;1311;47.966;7.958;2022-09-09T09:46:53;2.60;;;0.83;;
2602;SDS011;1311;47.966;7.958;2022-09-09T09:49:32;1.60;;;0.90;;
2602;SDS011;1311;47.966;7.958;2022-09-09T09:52:00;1.70;;;0.70;;
2602;SDS011;1311;47.966;7.958;2022-09-09T09:54:28;3.03;;;0.90;;
2602;SDS011;1311;47.966;7.958;2022-09-09T09:59:34;1.63;;;0.60;;
2602;SDS011;1311;47.966;7.958;2022-09-09T10:02:14;2.77;;;0.97;;
2602;SDS011;1311;47.966;7.958;2022-09-09T10:04:44;3.47;;;1.17;;
2602;SDS011;1311;47.966;7.958;2022-09-09T10:07:12;1.83;;;0.70;;
2602;SDS011;1311;47.966;7.958;2022-09-09T10:09:43;1.87;;;0.73;;
2602;SDS011;1311;47.966;7.958;2022-09-09T10:12:13;3.53;;;0.90;;
2602;SDS011;1311;47.966;7.958;2022-09-09T10:14:52;1.53;;;0.70;;
2602;SDS011;1311;47.966;7.958;2022-09-09T10:17:29;1.73;;;0.70;;
2602;SDS011;1311;47.966;7.958;2022-09-09T10:20:13;1.07;;;0.60;;
2602;SDS011;1311;47.966;7.958;2022-09-09T10:22:47;1.40;;;0.73;;
2602;SDS011;1311;47.966;7.958;2022-09-09T10:25:22;1.87;;;0.60;;
2602;SDS011;1311;47.966;7.958;2022-09-09T10:31:09;3.57;;;1.00;;
2602;SDS011;1311;47.966;7.958;2022-09-09T10:33:45;2.30;;;0.70;;
2602;SDS011;1311;47.966;7.958;2022-09-09T10:36:19;1.87;;;0.80;;
2602;SDS011;1311;47.966;7.958;2022-09-09T10:38:48;2.67;;;0.90;;
2602;SDS011;1311;47.966;7.958;2022-09-09T10:41:24;0.80;;;0.60;;
2602;SDS011;1311;47.966;7.958;2022-09-09T10:44:12;2.07;;;0.80;;
2602;SDS011;1311;47.966;7.958;2022-09-09T10:46:50;1.83;;;0.80;;
2602;SDS011;1311;47.966;7.958;2022-09-09T10:49:43;3.30;;;0.90;;
2602;SDS011;1311;47.966;7.958;2022-09-09T10:52:28;1.13;;;0.57;;
2602;SDS011;1311;47.966;7.958;2022-09-09T10:55:02;0.90;;;0.80;;
2602;SDS011;1311;47.966;7.958;2022-09-09T10:57:37;3.20;;;0.73;;
2602;SDS011;1311;47.966;7.958;2022-09-09T11:00:14;3.70;;;0.80;;
2602;SDS011;1311;47.966;7.958;2022-09-09T11:02:43;1.50;;;0.80;;
2602;SDS011;1311;47.966;7.958;2022-09-09T11:05:13;1.87;;;0.97;;
2602;SDS011;1311;47.966;7.958;2022-09-09T11:07:46;2.80;;;1.10;;
2602;SDS011;1311;47.966;7.958;2022-09-09T11:10:19;1.93;;;0.80;;
2602;SDS011;1311;47.966;7.958;2022-09-09T11:12:51;1.40;;;0.70;;
2602;SDS011;1311;47.966;7.958;2022-09-09T11:15:26;2.50;;;0.90;;
2602;SDS011;1311;47.966;7.958;2022-09-09T11:17:58;1.03;;;0.70;;
2602;SDS011;1311;47.966;7.958;2022-09-09T11:20:28;4.00;;;0.70;;
2602;SDS011;1311;47.966;7.958;2022-09-09T11:22:58;2.00;;;0.53;;
2602;SDS011;1311;47.966;7.958;2022-09-09T11:25:31;3.27;;;1.00;;
2602;SDS011;1311;47.966;7.958;2022-09-09T11:28:17;2.20;;;0.77;;
2602;SDS011;1311;47.966;7.958;2022-09-09T11:30:59;6.70;;;0.60;;
2602;SDS011;1311;47.966;7.958;2022-09-09T11:33:50;1.00;;;0.80;;
2602;SDS011;1311;47.966;7.958;2022-09-09T11:36:34;3.03;;;0.70;;
2602;SDS011;1311;47.966;7.958;2022-09-09T11:39:22;6.00;;;0.90;;
2602;SDS011;1311;47.966;7.958;2022-09-09T11:42:07;1.97;;;0.60;;
2602;SDS011;1311;47.966;7.958;2022-09-09T11:44:41;2.20;;;0.70;;
2602;SDS011;1311;47.966;7.958;2022-09-09T11:47:15;2.83;;;0.80;;
2602;SDS011;1311;47.966;7.958;2022-09-09T11:49:49;1.37;;;0.67;;
2602;SDS011;1311;47.966;7.958;2022-09-09T11:52:20;1.73;;;0.70;;
2602;SDS011;1311;47.966;7.958;2022-09-09T11:54:52;2.47;;;0.60;;
2602;SDS011;1311;47.966;7.958;2022-09-09T11:57:25;2.60;;;0.97;;
2602;SDS011;1311;47.966;7.958;2022-09-09T11:59:56;3.03;;;0.70;;
2602;SDS011;1311;47.966;7.958;2022-09-09T12:02:25;1.83;;;0.87;;
2602;SDS011;1311;47.966;7.958;2022-09-09T12:04:57;2.77;;;0.60;;
2602;SDS011;1311;47.966;7.958;2022-09-09T12:07:33;3.93;;;0.70;;
2602;SDS011;1311;47.966;7.958;2022-09-09T12:10:05;2.93;;;0.77;;
2602;SDS011;1311;47.966;7.958;2022-09-09T12:12:48;3.27;;;0.80;;
2602;SDS011;1311;47.966;7.958;2022-09-09T12:15:26;2.37;;;0.90;;
2602;SDS011;1311;47.966;7.958;2022-09-09T12:17:55;1.30;;;0.80;;
2602;SDS011;1311;47.966;7.958;2022-09-09T12:20:32;1.50;;;0.80;;
2602;SDS011;1311;47.966;7.958;2022-09-09T12:23:13;1.63;;;0.70;;
2602;SDS011;1311;47.966;7.958;2022-09-09T12:25:57;2.80;;;0.60;;
2602;SDS011;1311;47.966;7.958;2022-09-09T12:28:36;2.70;;;0.70;;
2602;SDS011;1311;47.966;7.958;2022-09-09T12:31:12;2.87;;;0.70;;
2602;SDS011;1311;47.966;7.958;2022-09-09T12:33:44;4.80;;;1.07;;
2602;SDS011;1311;47.966;7.958;2022-09-09T12:36:13;3.93;;;1.00;;
2602;SDS011;1311;47.966;7.958;2022-09-09T12:38:43;3.20;;;0.80;;
2602;SDS011;1311;47.966;7.958;2022-09-09T12:41:19;3.80;;;0.73;;
2602;SDS011;1311;47.966;7.958;2022-09-09T12:43:46;3.00;;;0.50;;
2602;SDS011;1311;47.966;7.958;2022-09-09T12:46:16;2.37;;;0.70;;
2602;SDS011;1311;47.966;7.958;2022-09-09T12:48:51;3.53;;;0.80;;
2602;SDS011;1311;47.966;7.958;2022-09-09T12:51:19;1.53;;;0.60;;
2602;SDS011;1311;47.966;7.958;2022-09-09T12:53:53;3.00;;;0.80;;
2602;SDS011;1311;47.966;7.958;2022-09-09T12:56:23;4.40;;;1.00;;
2602;SDS011;1311;47.966;7.958;2022-09-09T12:58:53;2.70;;;0.93;;
2602;SDS011;1311;47.966;7.958;2022-09-09T13:01:22;2.15;;;0.75;;
2602;SDS011;1311;47.966;7.958;2022-09-09T13:03:50;2.80;;;0.77;;
2602;SDS011;1311;47.966;7.958;2022-09-09T13:06:19;3.73;;;0.97;;
2602;SDS011;1311;47.966;7.958;2022-09-09T13:08:47;1.63;;;0.60;;
2602;SDS011;1311;47.966;7.958;2022-09-09T13:11:15;4.40;;;0.80;;
2602;SDS011;1311;47.966;7.958;2022-09-09T13:13:50;1.30;;;0.70;;
2602;SDS011;1311;47.966;7.958;2022-09-09T13:16:20;1.47;;;0.63;;
2602;SDS011;1311;47.966;7.958;2022-09-09T13:18:49;1.57;;;0.73;;
2602;SDS011;1311;47.966;7.958;2022-09-09T13:21:16;4.77;;;1.33;;
2602;SDS011;1311;47.966;7.958;2022-09-09T13:23:48;2.07;;;0.77;;
2602;SDS011;1311;47.966;7.958;2022-09-09T13:26:22;3.40;;;1.20;;
2602;SDS011;1311;47.966;7.958;2022-09-09T13:28:52;2.37;;;0.90;;
2602;SDS011;1311;47.966;7.958;2022-09-09T13:31:20;2.87;;;0.97;;
2602;SDS011;1311;47.966;7.958;2022-09-09T13:33:48;2.60;;;0.83;;
2602;SDS011;1311;47.966;7.958;2022-09-09T13:36:18;1.43;;;0.40;;
2602;SDS011;1311;47.966;7.958;2022-09-09T13:38:56;1.07;;;0.40;;
2602;SDS011;1311;47.966;7.958;2022-09-09T13:41:25;0.60;;;0.43;;
2602;SDS011;1311;47.966;7.958;2022-09-09T13:43:57;1.33;;;0.50;;
2602;SDS011;1311;47.966;7.958;2022-09-09T13:46:26;1.30;;;0.63;;
2602;SDS011;1311;47.966;7.958;2022-09-09T13:48:58;1.00;;;0.43;;
2602;SDS011;1311;47.966;7.958;2022-09-09T13:51:29;1.13;;;0.43;;
2602;SDS011;1311;47.966;7.958;2022-09-09T13:54:00;1.77;;;0.57;;
2602;SDS011;1311;47.966;7.958;2022-09-09T13:56:28;1.40;;;0.60;;
2602;SDS011;1311;47.966;7.958;2022-09-09T13:58:56;1.80;;;0.70;;
2602;SDS011;1311;47.966;7.958;2022-09-09T14:01:23;1.23;;;0.60;;
2602;SDS011;1311;47.966;7.958;2022-09-09T14:03:50;1.10;;;0.53;;
2602;SDS011;1311;47.966;7.958;2022-09-09T14:06:18;1.53;;;0.50;;
2602;SDS011;1311;47.966;7.958;2022-09-09T14:08:46;1.03;;;0.67;;
2602;SDS011;1311;47.966;7.958;2022-09-09T14:11:14;1.10;;;0.63;;
2602;SDS011;1311;47.966;7.958;2022-09-09T14:13:41;2.00;;;0.50;;
2602;SDS011;1311;47.966;7.958;2022-09-09T14:16:09;0.87;;;0.50;;
2602;SDS011;1311;47.966;7.958;2022-09-09T14:18:35;0.70;;;0.50;;
2602;SDS011;1311;47.966;7.958;2022-09-09T14:21:04;0.80;;;0.60;;
2602;SDS011;1311;47.966;7.958;2022-09-09T14:23:31;1.43;;;0.50;;
2602;SDS011;1311;47.966;7.958;2022-09-09T14:25:58;1.07;;;0.50;;
2602;SDS011;1311;47.966;7.958;2022-09-09T14:28:24;1.97;;;0.70;;
2602;SDS011;1311;47.966;7.958;2022-09-09T14:30:53;1.37;;;0.50;;
2602;SDS011;1311;47.966;7.958;2022-09-09T14:33:21;2.00;;;0.50;;
2602;SDS011;1311;47.966;7.958;2022-09-09T14:35:55;0.90;;;0.50;;
2602;SDS011;1311;47.966;7.958;2022-09-09T14:38:22;5.57;;;0.70;;
2602;SDS011;1311;47.966;7.958;2022-09-09T14:40:50;2.80;;;0.50;;
2602;SDS011;1311;47.966;7.958;2022-09-09T14:43:16;1.13;;;0.60;;
2602;SDS011;1311;47.966;7.958;2022-09-09T14:45:43;3.60;;;0.67;;
2602;SDS011;1311;47.966;7.958;2022-09-09T14:48:10;0.97;;;0.50;;
2602;SDS011;1311;47.966;7.958;2022-09-09T14:50:39;2.70;;;0.80;;
2602;SDS011;1311;47.966;7.958;2022-09-09T14:53:06;1.97;;;0.60;;
2602;SDS011;1311;47.966;7.958;2022-09-09T14:55:34;1.23;;;0.60;;
2602;SDS011;1311;47.966;7.958;2022-09-09T14:58:02;3.23;;;0.70;;
2602;SDS011;1311;47.966;7.958;2022-09-09T15:00:29;2.67;;;0.90;;
2602;SDS011;1311;47.966;7.958;2022-09-09T15:02:56;2.10;;;0.80;;
2602;SDS011;1311;47.966;7.958;2022-09-09T15:05:23;1.03;;;0.60;;
2602;SDS011;1311;47.966;7.958;2022-09-09T15:07:51;1.60;;;0.63;;
2602;SDS011;1311;47.966;7.958;2022-09-09T15:10:18;1.30;;;0.67;;
2602;SDS011;1311;47.966;7.958;2022-09-09T15:12:45;2.10;;;0.83;;
2602;SDS011;1311;47.966;7.958;2022-09-09T15:15:12;4.83;;;0.60;;
2602;SDS011;1311;47.966;7.958;2022-09-09T15:17:39;0.60;;;0.40;;
2602;SDS011;1311;47.966;7.958;2022-09-09T15:20:07;1.67;;;0.60;;
2602;SDS011;1311;47.966;7.958;2022-09-09T15:22:34;1.63;;;0.70;;
2602;SDS011;1311;47.966;7.958;2022-09-09T15:25:04;2.73;;;0.83;;
2602;SDS011;1311;47.966;7.958;2022-09-09T15:27:33;0.70;;;0.50;;
2602;SDS011;1311;47.966;7.958;2022-09-09T15:30:00;1.00;;;0.60;;
2602;SDS011;1311;47.966;7.958;2022-09-09T15:32:28;3.07;;;0.50;;
2602;SDS011;1311;47.966;7.958;2022-09-09T15:34:55;2.37;;;0.67;;
2602;SDS011;1311;47.966;7.958;2022-09-09T15:37:22;1.77;;;0.57;;
2602;SDS011;1311;47.966;7.958;2022-09-09T15:39:49;1.37;;;0.73;;
2602;SDS011;1311;47.966;7.958;2022-09-09T15:42:18;2.30;;;0.80;;
2602;SDS011;1311;47.966;7.958;2022-09-09T15:44:45;1.30;;;0.70;;
2602;SDS011;1311;47.966;7.958;2022-09-09T15:47:12;1.90;;;0.50;;